createdAt,value
2023-03-16T00:04:28.123Z,1.33
2023-03-16T00:09:20.119Z,1.20
2023-03-16T00:14:12.032Z,1.20
2023-03-16T00:19:06.294Z,1.43
2023-03-16T00:23:58.854Z,0.93
2023-03-16T00:28:54.448Z,1.08
2023-03-16T00:33:46.637Z,1.10
2023-03-16T00:38:45.133Z,1.50
2023-03-16T00:43:45.367Z,1.20
2023-03-16T00:48:39.927Z,1.20
2023-03-16T00:53:33.365Z,0.82
2023-03-16T00:58:25.485Z,1.30
2023-03-16T01:03:17.915Z,1.03
2023-03-16T01:08:09.815Z,1.20
2023-03-16T01:13:03.299Z,1.23
2023-03-16T01:17:55.284Z,1.35
2023-03-16T01:22:47.281Z,1.10
2023-03-16T01:27:39.284Z,1.10
2023-03-16T01:32:31.557Z,1.10
2023-03-16T01:42:21.602Z,1.38
2023-03-16T01:47:14.740Z,1.08
2023-03-16T01:57:09.853Z,1.02
2023-03-16T02:02:02.877Z,1.00
2023-03-16T02:06:58.239Z,1.00
2023-03-16T02:11:50.355Z,1.35
2023-03-16T02:16:43.154Z,1.27
2023-03-16T02:22:02.271Z,0.95
2023-03-16T02:27:44.426Z,1.00
2023-03-16T02:32:36.912Z,1.20
2023-03-16T02:37:29.209Z,1.02
2023-03-16T02:42:23.845Z,1.08
2023-03-16T02:47:34.537Z,0.93
2023-03-16T02:52:26.785Z,0.90
2023-03-16T02:57:18.983Z,1.15
2023-03-16T03:02:11.484Z,0.82
2023-03-16T03:07:04.878Z,0.80
2023-03-16T03:12:06.303Z,1.07
2023-03-16T03:16:58.319Z,0.85
2023-03-16T03:21:50.672Z,0.73
2023-03-16T03:26:45.368Z,1.25
2023-03-16T03:31:43.868Z,1.00
2023-03-16T03:36:36.049Z,0.95
2023-03-16T03:41:29.168Z,0.90
2023-03-16T03:46:21.551Z,0.83
2023-03-16T03:51:13.598Z,0.80
2023-03-16T03:56:21.870Z,1.02
2023-03-16T04:01:14.657Z,1.10
2023-03-16T04:06:08.214Z,0.93
2023-03-16T04:11:01.111Z,1.20
2023-03-16T04:15:58.264Z,1.20
2023-03-16T04:20:53.378Z,1.00
2023-03-16T04:25:47.410Z,1.38
2023-03-16T04:30:43.131Z,1.02
2023-03-16T04:35:58.556Z,1.10
2023-03-16T04:40:51.661Z,1.10
2023-03-16T04:45:47.718Z,0.98
2023-03-16T04:50:40.374Z,1.40
2023-03-16T04:55:32.838Z,0.82
2023-03-16T05:00:25.366Z,1.45
2023-03-16T05:05:31.253Z,1.10
2023-03-16T05:10:23.527Z,1.40
2023-03-16T05:15:15.408Z,1.02
2023-03-16T05:20:15.422Z,0.90
2023-03-16T05:25:15.711Z,0.90
2023-03-16T05:30:12.686Z,1.15
2023-03-16T05:35:06.181Z,1.08
2023-03-16T05:39:58.688Z,0.90
2023-03-16T05:44:50.643Z,1.03
2023-03-16T05:49:52.558Z,1.20
2023-03-16T05:54:54.490Z,1.05
2023-03-16T05:59:48.740Z,1.17
2023-03-16T06:04:41.608Z,1.30
2023-03-16T06:09:33.685Z,1.40
2023-03-16T06:14:30.331Z,1.23
2023-03-16T06:19:22.673Z,1.30
2023-03-16T06:24:19.750Z,1.35
2023-03-16T06:29:12.005Z,1.42
2023-03-16T06:34:05.716Z,1.08
2023-03-16T06:38:58.604Z,1.30
2023-03-16T06:43:55.892Z,1.13
2023-03-16T06:48:47.788Z,1.40
2023-03-16T06:53:40.501Z,1.40
2023-03-16T07:08:25.131Z,1.10
2023-03-16T07:13:18.795Z,2.97
2023-03-16T07:18:12.336Z,4.00
2023-03-16T07:23:04.995Z,3.53
2023-03-16T07:27:59.724Z,3.55
2023-03-16T07:32:59.034Z,8.60
2023-03-16T07:37:52.166Z,7.68
2023-03-16T07:47:50.426Z,7.88
2023-03-16T07:52:52.785Z,9.27
2023-03-16T07:57:48.213Z,9.57
2023-03-16T08:02:44.181Z,10.30
2023-03-16T08:07:38.351Z,11.32
2023-03-16T08:12:38.058Z,9.15
2023-03-16T08:17:42.458Z,7.75
2023-03-16T08:22:39.022Z,7.13
2023-03-16T08:27:31.840Z,7.20
2023-03-16T08:32:29.064Z,6.93
2023-03-16T08:37:22.613Z,6.45
2023-03-16T08:42:18.466Z,7.40
2023-03-16T08:47:15.117Z,6.93
2023-03-16T08:52:13.144Z,6.30
2023-03-16T08:57:05.404Z,7.57
2023-03-16T09:01:57.796Z,6.93
2023-03-16T09:07:05.693Z,4.63
2023-03-16T09:11:59.096Z,4.70
2023-03-16T09:21:43.617Z,3.47
2023-03-16T09:26:37.405Z,4.28
2023-03-16T09:31:29.838Z,4.93
2023-03-16T09:36:21.874Z,3.72
2023-03-16T09:41:52.641Z,4.40
2023-03-16T09:46:46.308Z,3.65
2023-03-16T09:51:46.252Z,3.53
2023-03-16T09:56:41.450Z,2.92
2023-03-16T10:01:50.877Z,3.78
2023-03-16T10:07:21.302Z,3.70
2023-03-16T10:12:15.076Z,2.97
2023-03-16T10:17:41.751Z,2.78
2023-03-16T10:22:35.845Z,3.30
2023-03-16T10:27:33.386Z,3.10
2023-03-16T10:32:29.485Z,2.72
2023-03-16T10:37:21.862Z,2.97
2023-03-16T10:42:18.937Z,2.30
2023-03-16T10:47:24.444Z,2.28
2023-03-16T10:52:21.306Z,2.55
2023-03-16T10:57:34.505Z,2.42
2023-03-16T11:02:32.316Z,2.30
2023-03-16T11:07:25.828Z,2.45
2023-03-16T11:12:26.011Z,2.30
2023-03-16T11:17:40.355Z,2.33
2023-03-16T11:22:32.625Z,3.03
2023-03-16T11:27:34.137Z,2.80
2023-03-16T11:32:31.090Z,3.40
2023-03-16T11:37:49.350Z,3.28
2023-03-16T11:43:00.082Z,3.20
2023-03-16T11:48:19.285Z,2.45
2023-03-16T11:53:28.381Z,2.78
2023-03-16T11:58:51.858Z,4.85
2023-03-16T12:04:02.280Z,3.40
2023-03-16T12:09:36.296Z,8.30
2023-03-16T12:15:12.659Z,9.18
2023-03-16T12:25:39.676Z,8.40
2023-03-16T12:30:49.194Z,7.45
2023-03-16T12:36:05.048Z,8.02
2023-03-16T12:41:17.700Z,7.70
2023-03-16T12:46:16.757Z,7.22
2023-03-16T12:51:14.250Z,7.47
2023-03-16T12:56:33.218Z,7.03
2023-03-16T13:01:45.998Z,5.93
2023-03-16T13:06:38.506Z,7.05
2023-03-16T13:11:45.929Z,6.30
2023-03-16T13:16:38.524Z,6.15
2023-03-16T13:21:39.514Z,6.57
2023-03-16T13:26:52.466Z,6.07
2023-03-16T13:31:44.445Z,7.65
2023-03-16T13:36:37.970Z,6.77
2023-03-16T13:41:30.589Z,5.72
2023-03-16T13:46:29.226Z,6.72
2023-03-16T13:51:22.843Z,5.60
2023-03-16T13:56:18.139Z,6.03
2023-03-16T14:01:29.560Z,5.05
2023-03-16T14:06:25.533Z,4.93
2023-03-16T14:11:17.865Z,4.60
2023-03-16T14:16:17.795Z,4.70
2023-03-16T14:21:27.386Z,4.82
2023-03-16T14:26:23.302Z,4.18
2023-03-16T14:31:20.199Z,5.53
2023-03-16T14:36:17.662Z,5.60
2023-03-16T14:41:12.377Z,5.65
2023-03-16T14:46:06.406Z,6.43
2023-03-16T14:51:01.679Z,5.07
2023-03-16T14:55:53.913Z,7.05
2023-03-16T15:00:52.633Z,6.33
2023-03-16T15:05:50.437Z,4.72
2023-03-16T15:10:42.858Z,5.65
2023-03-16T15:15:35.708Z,4.32
2023-03-16T15:25:37.454Z,4.15
2023-03-16T15:30:30.869Z,3.72
2023-03-16T15:35:23.368Z,3.65
2023-03-16T15:40:19.835Z,4.30
2023-03-16T15:45:14.205Z,3.53
2023-03-16T15:50:06.840Z,4.20
2023-03-16T15:55:03.393Z,3.88
2023-03-16T15:59:55.216Z,3.15
2023-03-16T16:04:46.985Z,2.90
2023-03-16T16:09:38.822Z,3.00
2023-03-16T16:14:30.634Z,3.28
2023-03-16T16:19:22.578Z,2.63
2023-03-16T16:24:15.693Z,2.67
2023-03-16T16:29:34.107Z,2.78
2023-03-16T16:34:27.183Z,3.58
2023-03-16T16:39:19.145Z,2.67
2023-03-16T16:44:17.450Z,2.70
2023-03-16T16:49:25.160Z,2.50
2023-03-16T16:54:36.927Z,2.83
2023-03-16T16:59:34.104Z,2.50
2023-03-16T17:04:28.155Z,1.90
2023-03-16T17:09:20.179Z,2.17
2023-03-16T17:14:17.010Z,2.07
2023-03-16T17:19:23.437Z,2.13
2023-03-16T17:24:15.447Z,1.92
2023-03-16T17:29:17.504Z,2.13
2023-03-16T17:34:26.115Z,1.80
2023-03-16T17:39:32.168Z,2.20
2023-03-16T17:44:25.547Z,3.63
2023-03-16T17:49:18.828Z,2.55
2023-03-16T17:54:11.805Z,3.28
2023-03-16T18:03:58.040Z,2.25
2023-03-16T18:08:50.102Z,2.40
2023-03-16T18:13:42.757Z,2.37
2023-03-16T18:18:38.257Z,2.47
2023-03-16T18:23:33.582Z,2.05
2023-03-16T18:28:25.452Z,1.67
2023-03-16T18:33:36.376Z,2.30
2023-03-16T18:38:33.573Z,2.00
2023-03-16T18:43:27.328Z,2.33
2023-03-16T18:48:27.428Z,1.67
2023-03-16T18:53:20.084Z,1.55
2023-03-16T18:58:17.488Z,1.80
2023-03-16T19:03:19.923Z,1.70
2023-03-16T19:08:13.274Z,1.87
2023-03-16T19:13:15.016Z,2.42
2023-03-16T19:18:06.946Z,2.40
2023-03-16T19:23:03.460Z,2.20
2023-03-16T19:27:55.755Z,1.88
2023-03-16T19:32:47.738Z,1.80
2023-03-16T19:37:39.635Z,2.13
2023-03-16T19:42:34.327Z,1.65
2023-03-16T19:47:34.465Z,1.63
2023-03-16T19:52:28.373Z,1.80
2023-03-16T19:57:21.140Z,1.40
2023-03-16T20:02:27.812Z,1.98
2023-03-16T20:07:19.749Z,1.80
2023-03-16T20:12:22.045Z,1.70
2023-03-16T20:17:23.557Z,2.07
2023-03-16T20:22:19.279Z,1.90
2023-03-16T20:27:12.229Z,1.58
2023-03-16T20:41:50.453Z,2.00
2023-03-16T20:46:44.737Z,1.52
2023-03-16T20:51:37.458Z,1.80
2023-03-16T20:56:31.200Z,1.52
2023-03-16T21:01:24.621Z,1.65
2023-03-16T21:06:25.480Z,1.60
2023-03-16T21:11:32.599Z,1.50
2023-03-16T21:16:25.408Z,1.90
2023-03-16T21:21:19.167Z,1.73
2023-03-16T21:26:16.711Z,1.88
2023-03-16T21:31:08.663Z,1.95
2023-03-16T21:36:02.121Z,1.43
2023-03-16T21:40:54.769Z,1.60
2023-03-16T21:45:47.084Z,1.60
2023-03-16T21:50:39.556Z,1.47
2023-03-16T21:55:31.935Z,2.00
2023-03-16T22:00:27.270Z,1.70
2023-03-16T22:05:39.980Z,2.25
2023-03-16T22:10:31.838Z,2.00
2023-03-16T22:15:27.709Z,1.63
2023-03-16T22:20:23.243Z,1.88
2023-03-16T22:25:21.698Z,1.42
2023-03-16T22:30:18.673Z,1.50
2023-03-16T22:35:30.169Z,1.50
2023-03-16T22:40:25.292Z,1.65
2023-03-16T22:45:21.917Z,1.95
2023-03-16T22:50:14.987Z,1.90
2023-03-16T22:59:59.787Z,1.42
2023-03-16T23:04:52.253Z,1.30
2023-03-16T23:09:44.410Z,1.52
2023-03-16T23:14:38.262Z,1.40
2023-03-16T23:19:32.991Z,1.65
2023-03-16T23:24:24.957Z,1.70
2023-03-16T23:29:16.829Z,1.65
2023-03-16T23:34:13.755Z,1.48
2023-03-16T23:39:06.186Z,1.73
2023-03-16T23:43:58.335Z,1.60
2023-03-16T23:48:51.601Z,1.83
2023-03-16T23:53:43.947Z,1.48
2023-03-16T23:58:36.334Z,1.65
